METAR Data
IDs: Format: Raw Decoded Include TAF

Data at: 0637 UTC 01 Aug 2021

EDDH 010620Z 24007KT 9999 BKN009 BKN017 16/15 Q1006 TEMPO SCT010